sensor_id;sensor_type;location;lat;lon;timestamp;P1;durP1;ratioP1;P2;durP2;ratioP2
2772;SDS011;1394;47.044;15.744;2023-04-24T00:01:41;25.50;;;2.87;;
2772;SDS011;1394;47.044;15.744;2023-04-24T00:04:08;24.97;;;2.27;;
2772;SDS011;1394;47.044;15.744;2023-04-24T00:06:40;24.73;;;2.03;;
2772;SDS011;1394;47.044;15.744;2023-04-24T00:09:14;24.50;;;1.80;;
2772;SDS011;1394;47.044;15.744;2023-04-24T00:11:41;24.83;;;2.07;;
2772;SDS011;1394;47.044;15.744;2023-04-24T00:14:09;25.27;;;2.20;;
2772;SDS011;1394;47.044;15.744;2023-04-24T00:16:36;25.80;;;2.10;;
2772;SDS011;1394;47.044;15.744;2023-04-24T00:19:03;30.07;;;4.00;;
2772;SDS011;1394;47.044;15.744;2023-04-24T00:21:31;24.60;;;2.10;;
2772;SDS011;1394;47.044;15.744;2023-04-24T00:24:00;24.63;;;1.87;;
2772;SDS011;1394;47.044;15.744;2023-04-24T00:26:27;25.13;;;2.70;;
2772;SDS011;1394;47.044;15.744;2023-04-24T00:28:54;24.80;;;2.03;;
2772;SDS011;1394;47.044;15.744;2023-04-24T00:31:22;24.37;;;2.10;;
2772;SDS011;1394;47.044;15.744;2023-04-24T00:33:49;24.70;;;1.90;;
2772;SDS011;1394;47.044;15.744;2023-04-24T00:36:19;24.73;;;1.80;;
2772;SDS011;1394;47.044;15.744;2023-04-24T00:38:46;24.70;;;2.30;;
2772;SDS011;1394;47.044;15.744;2023-04-24T00:41:15;26.20;;;1.80;;
2772;SDS011;1394;47.044;15.744;2023-04-24T00:43:43;24.60;;;2.10;;
2772;SDS011;1394;47.044;15.744;2023-04-24T00:46:10;26.97;;;2.37;;
2772;SDS011;1394;47.044;15.744;2023-04-24T00:48:38;29.33;;;2.77;;
2772;SDS011;1394;47.044;15.744;2023-04-24T00:51:09;27.40;;;2.13;;
2772;SDS011;1394;47.044;15.744;2023-04-24T00:53:37;30.20;;;2.73;;
2772;SDS011;1394;47.044;15.744;2023-04-24T00:56:05;24.90;;;2.30;;
2772;SDS011;1394;47.044;15.744;2023-04-24T00:58:33;28.67;;;2.93;;
2772;SDS011;1394;47.044;15.744;2023-04-24T01:01:01;40.80;;;3.90;;
2772;SDS011;1394;47.044;15.744;2023-04-24T01:03:32;29.23;;;2.83;;
2772;SDS011;1394;47.044;15.744;2023-04-24T01:06:02;27.53;;;2.60;;
2772;SDS011;1394;47.044;15.744;2023-04-24T01:08:29;29.53;;;3.00;;
2772;SDS011;1394;47.044;15.744;2023-04-24T01:10:57;35.03;;;3.80;;
2772;SDS011;1394;47.044;15.744;2023-04-24T01:13:24;30.83;;;2.90;;
2772;SDS011;1394;47.044;15.744;2023-04-24T01:15:53;30.90;;;3.03;;
2772;SDS011;1394;47.044;15.744;2023-04-24T01:18:26;26.97;;;2.40;;
2772;SDS011;1394;47.044;15.744;2023-04-24T01:20:54;25.90;;;2.70;;
2772;SDS011;1394;47.044;15.744;2023-04-24T01:23:24;31.27;;;2.83;;
2772;SDS011;1394;47.044;15.744;2023-04-24T01:25:55;29.60;;;2.60;;
2772;SDS011;1394;47.044;15.744;2023-04-24T01:28:23;28.87;;;3.00;;
2772;SDS011;1394;47.044;15.744;2023-04-24T01:30:50;35.80;;;3.47;;
2772;SDS011;1394;47.044;15.744;2023-04-24T01:33:17;27.27;;;2.73;;
2772;SDS011;1394;47.044;15.744;2023-04-24T01:35:45;25.10;;;2.73;;
2772;SDS011;1394;47.044;15.744;2023-04-24T01:38:12;26.20;;;3.20;;
2772;SDS011;1394;47.044;15.744;2023-04-24T01:40:41;25.47;;;2.50;;
2772;SDS011;1394;47.044;15.744;2023-04-24T01:43:08;25.77;;;2.33;;
2772;SDS011;1394;47.044;15.744;2023-04-24T01:45:35;24.60;;;2.00;;
2772;SDS011;1394;47.044;15.744;2023-04-24T01:48:02;24.77;;;2.20;;
2772;SDS011;1394;47.044;15.744;2023-04-24T01:50:30;24.90;;;2.07;;
2772;SDS011;1394;47.044;15.744;2023-04-24T01:52:57;24.40;;;1.93;;
2772;SDS011;1394;47.044;15.744;2023-04-24T01:55:32;24.40;;;1.83;;
2772;SDS011;1394;47.044;15.744;2023-04-24T01:58:00;24.40;;;1.67;;
2772;SDS011;1394;47.044;15.744;2023-04-24T02:00:28;25.17;;;2.13;;
2772;SDS011;1394;47.044;15.744;2023-04-24T02:02:55;25.03;;;1.67;;
2772;SDS011;1394;47.044;15.744;2023-04-24T02:05:23;24.20;;;1.40;;
2772;SDS011;1394;47.044;15.744;2023-04-24T02:07:51;25.37;;;2.60;;
2772;SDS011;1394;47.044;15.744;2023-04-24T02:10:18;24.97;;;2.20;;
2772;SDS011;1394;47.044;15.744;2023-04-24T02:12:45;24.37;;;1.60;;
2772;SDS011;1394;47.044;15.744;2023-04-24T02:15:14;25.40;;;1.70;;
2772;SDS011;1394;47.044;15.744;2023-04-24T02:17:42;25.13;;;1.90;;
2772;SDS011;1394;47.044;15.744;2023-04-24T02:20:09;25.60;;;2.50;;
2772;SDS011;1394;47.044;15.744;2023-04-24T02:22:36;24.53;;;1.90;;
2772;SDS011;1394;47.044;15.744;2023-04-24T02:25:05;24.93;;;2.17;;
2772;SDS011;1394;47.044;15.744;2023-04-24T02:27:33;24.50;;;1.80;;
2772;SDS011;1394;47.044;15.744;2023-04-24T02:30:00;24.70;;;2.00;;
2772;SDS011;1394;47.044;15.744;2023-04-24T02:32:29;24.30;;;1.80;;
2772;SDS011;1394;47.044;15.744;2023-04-24T02:34:56;25.77;;;2.27;;
2772;SDS011;1394;47.044;15.744;2023-04-24T02:37:24;25.77;;;2.07;;
2772;SDS011;1394;47.044;15.744;2023-04-24T02:39:51;25.27;;;2.00;;
2772;SDS011;1394;47.044;15.744;2023-04-24T02:42:18;39.13;;;3.70;;
2772;SDS011;1394;47.044;15.744;2023-04-24T02:44:45;25.07;;;2.10;;
2772;SDS011;1394;47.044;15.744;2023-04-24T02:47:16;24.97;;;1.97;;
2772;SDS011;1394;47.044;15.744;2023-04-24T02:49:44;27.27;;;2.50;;
2772;SDS011;1394;47.044;15.744;2023-04-24T02:52:13;24.20;;;1.80;;
2772;SDS011;1394;47.044;15.744;2023-04-24T02:54:43;24.30;;;1.80;;
2772;SDS011;1394;47.044;15.744;2023-04-24T02:57:13;24.40;;;1.70;;
2772;SDS011;1394;47.044;15.744;2023-04-24T02:59:40;24.27;;;1.67;;
2772;SDS011;1394;47.044;15.744;2023-04-24T03:02:08;30.83;;;2.40;;
2772;SDS011;1394;47.044;15.744;2023-04-24T03:04:35;26.47;;;2.40;;
2772;SDS011;1394;47.044;15.744;2023-04-24T03:07:05;25.97;;;2.63;;
2772;SDS011;1394;47.044;15.744;2023-04-24T03:09:52;24.50;;;2.00;;
2772;SDS011;1394;47.044;15.744;2023-04-24T03:12:20;24.23;;;2.00;;
2772;SDS011;1394;47.044;15.744;2023-04-24T03:14:50;30.17;;;3.10;;
2772;SDS011;1394;47.044;15.744;2023-04-24T03:17:17;24.77;;;2.10;;
2772;SDS011;1394;47.044;15.744;2023-04-24T03:19:44;25.17;;;2.13;;
2772;SDS011;1394;47.044;15.744;2023-04-24T03:22:13;24.73;;;2.20;;
2772;SDS011;1394;47.044;15.744;2023-04-24T03:24:40;26.03;;;2.40;;
2772;SDS011;1394;47.044;15.744;2023-04-24T03:27:07;25.47;;;2.40;;
2772;SDS011;1394;47.044;15.744;2023-04-24T03:29:34;24.67;;;2.30;;
2772;SDS011;1394;47.044;15.744;2023-04-24T03:32:01;26.47;;;3.10;;
2772;SDS011;1394;47.044;15.744;2023-04-24T03:34:30;24.80;;;2.33;;
2772;SDS011;1394;47.044;15.744;2023-04-24T03:36:57;24.87;;;2.47;;
2772;SDS011;1394;47.044;15.744;2023-04-24T03:39:25;24.50;;;2.23;;
2772;SDS011;1394;47.044;15.744;2023-04-24T03:41:53;25.17;;;2.03;;
2772;SDS011;1394;47.044;15.744;2023-04-24T03:44:20;26.63;;;2.90;;
2772;SDS011;1394;47.044;15.744;2023-04-24T03:46:48;25.40;;;3.00;;
2772;SDS011;1394;47.044;15.744;2023-04-24T03:49:16;24.63;;;2.27;;
2772;SDS011;1394;47.044;15.744;2023-04-24T03:51:43;24.63;;;2.17;;
2772;SDS011;1394;47.044;15.744;2023-04-24T03:54:10;24.60;;;1.97;;
2772;SDS011;1394;47.044;15.744;2023-04-24T03:56:40;24.53;;;1.90;;
2772;SDS011;1394;47.044;15.744;2023-04-24T03:59:07;24.37;;;1.80;;
2772;SDS011;1394;47.044;15.744;2023-04-24T04:01:35;26.57;;;2.33;;
2772;SDS011;1394;47.044;15.744;2023-04-24T04:04:02;25.60;;;2.10;;
2772;SDS011;1394;47.044;15.744;2023-04-24T04:06:29;24.90;;;2.13;;
2772;SDS011;1394;47.044;15.744;2023-04-24T04:08:58;24.43;;;2.30;;
2772;SDS011;1394;47.044;15.744;2023-04-24T04:11:26;24.97;;;2.10;;
2772;SDS011;1394;47.044;15.744;2023-04-24T04:13:54;24.50;;;2.10;;
2772;SDS011;1394;47.044;15.744;2023-04-24T04:16:22;24.30;;;2.00;;
2772;SDS011;1394;47.044;15.744;2023-04-24T04:18:49;25.20;;;2.33;;
2772;SDS011;1394;47.044;15.744;2023-04-24T04:21:16;24.53;;;1.80;;
2772;SDS011;1394;47.044;15.744;2023-04-24T04:23:43;24.20;;;1.70;;
2772;SDS011;1394;47.044;15.744;2023-04-24T04:26:11;24.50;;;1.57;;
2772;SDS011;1394;47.044;15.744;2023-04-24T04:28:38;24.87;;;1.73;;
2772;SDS011;1394;47.044;15.744;2023-04-24T04:31:07;24.07;;;1.83;;
2772;SDS011;1394;47.044;15.744;2023-04-24T04:33:36;24.33;;;1.83;;
2772;SDS011;1394;47.044;15.744;2023-04-24T04:36:04;24.77;;;2.27;;
2772;SDS011;1394;47.044;15.744;2023-04-24T04:38:32;24.23;;;2.30;;
2772;SDS011;1394;47.044;15.744;2023-04-24T04:41:03;28.90;;;4.60;;
2772;SDS011;1394;47.044;15.744;2023-04-24T04:43:32;25.40;;;2.90;;
2772;SDS011;1394;47.044;15.744;2023-04-24T04:46:02;25.37;;;2.70;;
2772;SDS011;1394;47.044;15.744;2023-04-24T04:48:31;25.20;;;2.37;;
2772;SDS011;1394;47.044;15.744;2023-04-24T04:51:00;24.30;;;1.80;;
2772;SDS011;1394;47.044;15.744;2023-04-24T04:53:27;24.67;;;1.93;;
2772;SDS011;1394;47.044;15.744;2023-04-24T04:55:57;24.50;;;1.90;;
2772;SDS011;1394;47.044;15.744;2023-04-24T04:58:25;25.33;;;2.10;;
2772;SDS011;1394;47.044;15.744;2023-04-24T05:00:52;24.47;;;2.17;;
2772;SDS011;1394;47.044;15.744;2023-04-24T05:03:19;24.40;;;1.90;;
2772;SDS011;1394;47.044;15.744;2023-04-24T05:05:48;24.67;;;2.00;;
2772;SDS011;1394;47.044;15.744;2023-04-24T05:08:17;24.10;;;1.70;;
2772;SDS011;1394;47.044;15.744;2023-04-24T05:10:44;24.87;;;1.70;;
2772;SDS011;1394;47.044;15.744;2023-04-24T05:13:11;25.00;;;2.60;;
2772;SDS011;1394;47.044;15.744;2023-04-24T05:15:38;24.60;;;2.20;;
2772;SDS011;1394;47.044;15.744;2023-04-24T05:18:07;24.67;;;2.00;;
2772;SDS011;1394;47.044;15.744;2023-04-24T05:20:37;24.97;;;2.20;;
2772;SDS011;1394;47.044;15.744;2023-04-24T05:23:05;27.43;;;2.40;;
2772;SDS011;1394;47.044;15.744;2023-04-24T05:25:33;24.83;;;2.20;;
2772;SDS011;1394;47.044;15.744;2023-04-24T05:28:01;24.60;;;2.10;;
2772;SDS011;1394;47.044;15.744;2023-04-24T05:30:29;24.67;;;1.80;;
2772;SDS011;1394;47.044;15.744;2023-04-24T05:32:57;24.43;;;1.90;;
2772;SDS011;1394;47.044;15.744;2023-04-24T05:35:24;24.30;;;1.70;;
2772;SDS011;1394;47.044;15.744;2023-04-24T05:37:54;24.37;;;1.47;;
2772;SDS011;1394;47.044;15.744;2023-04-24T05:40:24;24.13;;;1.70;;
2772;SDS011;1394;47.044;15.744;2023-04-24T05:42:53;24.97;;;1.90;;
2772;SDS011;1394;47.044;15.744;2023-04-24T05:45:20;25.37;;;1.70;;
2772;SDS011;1394;47.044;15.744;2023-04-24T05:47:47;24.20;;;1.70;;
2772;SDS011;1394;47.044;15.744;2023-04-24T05:50:17;24.20;;;1.40;;
2772;SDS011;1394;47.044;15.744;2023-04-24T05:52:44;24.07;;;1.50;;
2772;SDS011;1394;47.044;15.744;2023-04-24T05:55:11;24.67;;;1.70;;
2772;SDS011;1394;47.044;15.744;2023-04-24T05:57:40;24.30;;;2.00;;
2772;SDS011;1394;47.044;15.744;2023-04-24T06:00:08;24.27;;;1.70;;
2772;SDS011;1394;47.044;15.744;2023-04-24T06:02:37;24.30;;;1.97;;
2772;SDS011;1394;47.044;15.744;2023-04-24T06:05:04;24.40;;;1.80;;
2772;SDS011;1394;47.044;15.744;2023-04-24T06:07:33;24.20;;;1.60;;
2772;SDS011;1394;47.044;15.744;2023-04-24T06:10:01;24.40;;;1.87;;
2772;SDS011;1394;47.044;15.744;2023-04-24T06:12:28;24.90;;;1.73;;
2772;SDS011;1394;47.044;15.744;2023-04-24T06:14:59;24.20;;;1.80;;
2772;SDS011;1394;47.044;15.744;2023-04-24T06:17:27;24.47;;;1.90;;
2772;SDS011;1394;47.044;15.744;2023-04-24T06:19:56;25.40;;;1.60;;
2772;SDS011;1394;47.044;15.744;2023-04-24T06:22:24;25.30;;;1.70;;
2772;SDS011;1394;47.044;15.744;2023-04-24T06:24:51;24.40;;;1.90;;
2772;SDS011;1394;47.044;15.744;2023-04-24T06:27:18;24.50;;;1.50;;
2772;SDS011;1394;47.044;15.744;2023-04-24T06:29:45;24.20;;;1.50;;
2772;SDS011;1394;47.044;15.744;2023-04-24T06:32:19;24.60;;;2.00;;
2772;SDS011;1394;47.044;15.744;2023-04-24T06:34:48;25.63;;;2.00;;
2772;SDS011;1394;47.044;15.744;2023-04-24T06:37:16;24.50;;;1.90;;
2772;SDS011;1394;47.044;15.744;2023-04-24T06:39:43;24.60;;;1.80;;
2772;SDS011;1394;47.044;15.744;2023-04-24T06:42:10;24.77;;;1.90;;
2772;SDS011;1394;47.044;15.744;2023-04-24T06:44:39;24.30;;;1.60;;
2772;SDS011;1394;47.044;15.744;2023-04-24T06:47:07;24.10;;;1.70;;
2772;SDS011;1394;47.044;15.744;2023-04-24T06:49:36;24.60;;;2.00;;
2772;SDS011;1394;47.044;15.744;2023-04-24T06:52:03;24.80;;;1.90;;
2772;SDS011;1394;47.044;15.744;2023-04-24T06:54:30;24.53;;;1.77;;
2772;SDS011;1394;47.044;15.744;2023-04-24T06:57:02;24.70;;;1.90;;
2772;SDS011;1394;47.044;15.744;2023-04-24T06:59:29;25.27;;;1.90;;
2772;SDS011;1394;47.044;15.744;2023-04-24T07:02:00;24.97;;;1.87;;
2772;SDS011;1394;47.044;15.744;2023-04-24T07:04:30;24.87;;;1.90;;
2772;SDS011;1394;47.044;15.744;2023-04-24T07:06:59;24.87;;;2.10;;
2772;SDS011;1394;47.044;15.744;2023-04-24T07:09:29;24.80;;;1.47;;
2772;SDS011;1394;47.044;15.744;2023-04-24T07:11:57;24.80;;;2.10;;
2772;SDS011;1394;47.044;15.744;2023-04-24T07:14:24;24.83;;;1.80;;
2772;SDS011;1394;47.044;15.744;2023-04-24T07:16:51;25.20;;;2.10;;
2772;SDS011;1394;47.044;15.744;2023-04-24T07:19:19;25.50;;;1.90;;
2772;SDS011;1394;47.044;15.744;2023-04-24T07:21:48;25.73;;;2.20;;
2772;SDS011;1394;47.044;15.744;2023-04-24T07:24:23;25.10;;;2.13;;
2772;SDS011;1394;47.044;15.744;2023-04-24T07:26:51;24.90;;;2.10;;
2772;SDS011;1394;47.044;15.744;2023-04-24T07:29:20;24.80;;;2.20;;
2772;SDS011;1394;47.044;15.744;2023-04-24T07:31:53;25.00;;;1.83;;
2772;SDS011;1394;47.044;15.744;2023-04-24T07:34:22;25.10;;;2.03;;
2772;SDS011;1394;47.044;15.744;2023-04-24T07:36:49;24.60;;;2.10;;
2772;SDS011;1394;47.044;15.744;2023-04-24T07:39:17;24.63;;;1.90;;
2772;SDS011;1394;47.044;15.744;2023-04-24T07:41:50;24.80;;;2.20;;
2772;SDS011;1394;47.044;15.744;2023-04-24T07:44:22;24.77;;;1.80;;
2772;SDS011;1394;47.044;15.744;2023-04-24T07:46:49;24.97;;;1.80;;
2772;SDS011;1394;47.044;15.744;2023-04-24T07:49:19;25.27;;;2.40;;
2772;SDS011;1394;47.044;15.744;2023-04-24T07:51:46;25.00;;;2.07;;
2772;SDS011;1394;47.044;15.744;2023-04-24T07:54:13;25.37;;;2.03;;
2772;SDS011;1394;47.044;15.744;2023-04-24T07:56:40;28.10;;;2.70;;
2772;SDS011;1394;47.044;15.744;2023-04-24T07:59:09;24.70;;;2.03;;
2772;SDS011;1394;47.044;15.744;2023-04-24T08:01:38;25.13;;;2.53;;
2772;SDS011;1394;47.044;15.744;2023-04-24T08:04:05;24.80;;;2.13;;
2772;SDS011;1394;47.044;15.744;2023-04-24T08:06:32;25.10;;;2.30;;
2772;SDS011;1394;47.044;15.744;2023-04-24T08:09:00;25.73;;;2.30;;
2772;SDS011;1394;47.044;15.744;2023-04-24T08:11:34;25.63;;;2.50;;
2772;SDS011;1394;47.044;15.744;2023-04-24T08:14:04;25.33;;;2.07;;
2772;SDS011;1394;47.044;15.744;2023-04-24T08:16:33;25.20;;;2.50;;
2772;SDS011;1394;47.044;15.744;2023-04-24T08:19:01;26.50;;;2.53;;
2772;SDS011;1394;47.044;15.744;2023-04-24T08:21:29;25.77;;;2.80;;
2772;SDS011;1394;47.044;15.744;2023-04-24T08:23:56;26.20;;;3.07;;
2772;SDS011;1394;47.044;15.744;2023-04-24T08:26:24;27.30;;;2.40;;
2772;SDS011;1394;47.044;15.744;2023-04-24T08:28:54;25.43;;;2.40;;
2772;SDS011;1394;47.044;15.744;2023-04-24T08:31:21;25.53;;;2.47;;
2772;SDS011;1394;47.044;15.744;2023-04-24T08:33:53;26.00;;;2.47;;
2772;SDS011;1394;47.044;15.744;2023-04-24T08:36:22;25.20;;;2.37;;
2772;SDS011;1394;47.044;15.744;2023-04-24T08:38:49;25.60;;;2.47;;
2772;SDS011;1394;47.044;15.744;2023-04-24T08:41:16;24.80;;;2.10;;
2772;SDS011;1394;47.044;15.744;2023-04-24T08:43:45;25.50;;;2.33;;
2772;SDS011;1394;47.044;15.744;2023-04-24T08:46:13;25.27;;;2.10;;
2772;SDS011;1394;47.044;15.744;2023-04-24T08:48:42;25.17;;;2.20;;
2772;SDS011;1394;47.044;15.744;2023-04-24T08:51:15;25.33;;;2.23;;
2772;SDS011;1394;47.044;15.744;2023-04-24T08:53:43;25.60;;;2.60;;
2772;SDS011;1394;47.044;15.744;2023-04-24T08:56:12;25.17;;;2.17;;
2772;SDS011;1394;47.044;15.744;2023-04-24T08:58:41;25.17;;;2.53;;
2772;SDS011;1394;47.044;15.744;2023-04-24T09:01:10;25.27;;;2.60;;
2772;SDS011;1394;47.044;15.744;2023-04-24T09:03:40;25.07;;;2.43;;
2772;SDS011;1394;47.044;15.744;2023-04-24T09:06:08;25.27;;;2.63;;
2772;SDS011;1394;47.044;15.744;2023-04-24T09:08:37;25.00;;;2.23;;
2772;SDS011;1394;47.044;15.744;2023-04-24T09:11:05;25.07;;;2.17;;
2772;SDS011;1394;47.044;15.744;2023-04-24T09:13:34;25.77;;;2.80;;
2772;SDS011;1394;47.044;15.744;2023-04-24T09:16:04;25.50;;;3.10;;
2772;SDS011;1394;47.044;15.744;2023-04-24T09:18:31;25.00;;;2.43;;
2772;SDS011;1394;47.044;15.744;2023-04-24T09:21:01;25.30;;;2.97;;
2772;SDS011;1394;47.044;15.744;2023-04-24T09:23:31;25.90;;;3.07;;
2772;SDS011;1394;47.044;15.744;2023-04-24T09:26:02;25.83;;;3.50;;
2772;SDS011;1394;47.044;15.744;2023-04-24T09:28:31;27.83;;;2.90;;
2772;SDS011;1394;47.044;15.744;2023-04-24T09:31:03;25.43;;;3.07;;
2772;SDS011;1394;47.044;15.744;2023-04-24T09:33:32;25.20;;;2.80;;
2772;SDS011;1394;47.044;15.744;2023-04-24T09:36:01;25.57;;;3.27;;
2772;SDS011;1394;47.044;15.744;2023-04-24T09:38:31;26.53;;;3.20;;
2772;SDS011;1394;47.044;15.744;2023-04-24T09:40:59;25.43;;;3.07;;
2772;SDS011;1394;47.044;15.744;2023-04-24T09:43:32;26.80;;;2.87;;
2772;SDS011;1394;47.044;15.744;2023-04-24T09:46:04;25.40;;;3.07;;
2772;SDS011;1394;47.044;15.744;2023-04-24T09:48:31;25.47;;;2.47;;
2772;SDS011;1394;47.044;15.744;2023-04-24T09:51:00;25.37;;;2.60;;
2772;SDS011;1394;47.044;15.744;2023-04-24T09:53:30;25.90;;;3.20;;
2772;SDS011;1394;47.044;15.744;2023-04-24T09:56:01;25.40;;;2.90;;
2772;SDS011;1394;47.044;15.744;2023-04-24T09:58:29;25.93;;;3.00;;
2772;SDS011;1394;47.044;15.744;2023-04-24T10:00:57;24.90;;;2.67;;
2772;SDS011;1394;47.044;15.744;2023-04-24T10:03:30;25.07;;;2.50;;
2772;SDS011;1394;47.044;15.744;2023-04-24T10:05:58;25.43;;;2.50;;
2772;SDS011;1394;47.044;15.744;2023-04-24T10:08:25;25.10;;;2.50;;
2772;SDS011;1394;47.044;15.744;2023-04-24T10:10:52;25.60;;;3.10;;
2772;SDS011;1394;47.044;15.744;2023-04-24T10:13:21;24.90;;;2.10;;
2772;SDS011;1394;47.044;15.744;2023-04-24T10:15:49;25.30;;;2.47;;
2772;SDS011;1394;47.044;15.744;2023-04-24T10:18:18;24.80;;;2.20;;
2772;SDS011;1394;47.044;15.744;2023-04-24T10:20:47;24.50;;;1.60;;
2772;SDS011;1394;47.044;15.744;2023-04-24T10:23:15;24.70;;;1.80;;
2772;SDS011;1394;47.044;15.744;2023-04-24T10:25:45;24.70;;;1.80;;
2772;SDS011;1394;47.044;15.744;2023-04-24T10:28:12;25.03;;;2.10;;
2772;SDS011;1394;47.044;15.744;2023-04-24T10:30:41;25.07;;;1.93;;
2772;SDS011;1394;47.044;15.744;2023-04-24T10:33:10;25.57;;;1.77;;
2772;SDS011;1394;47.044;15.744;2023-04-24T10:35:44;24.60;;;1.40;;
2772;SDS011;1394;47.044;15.744;2023-04-24T10:38:15;24.37;;;1.40;;
2772;SDS011;1394;47.044;15.744;2023-04-24T10:40:45;24.77;;;1.33;;
2772;SDS011;1394;47.044;15.744;2023-04-24T10:43:13;24.30;;;1.40;;
2772;SDS011;1394;47.044;15.744;2023-04-24T10:45:59;24.40;;;1.23;;
2772;SDS011;1394;47.044;15.744;2023-04-24T10:48:27;25.47;;;1.20;;
2772;SDS011;1394;47.044;15.744;2023-04-24T10:50:57;24.20;;;1.30;;
2772;SDS011;1394;47.044;15.744;2023-04-24T10:53:27;24.00;;;0.90;;
2772;SDS011;1394;47.044;15.744;2023-04-24T10:56:00;24.27;;;1.10;;
2772;SDS011;1394;47.044;15.744;2023-04-24T10:58:38;23.90;;;0.90;;
2772;SDS011;1394;47.044;15.744;2023-04-24T11:01:06;24.83;;;0.90;;
2772;SDS011;1394;47.044;15.744;2023-04-24T11:03:34;24.20;;;1.00;;
2772;SDS011;1394;47.044;15.744;2023-04-24T11:06:03;24.00;;;0.80;;
2772;SDS011;1394;47.044;15.744;2023-04-24T11:08:32;23.90;;;0.90;;
2772;SDS011;1394;47.044;15.744;2023-04-24T11:11:03;24.33;;;0.77;;
2772;SDS011;1394;47.044;15.744;2023-04-24T11:16:26;24.20;;;0.80;;
2772;SDS011;1394;47.044;15.744;2023-04-24T11:18:59;24.50;;;0.93;;
2772;SDS011;1394;47.044;15.744;2023-04-24T11:21:32;24.13;;;0.90;;
2772;SDS011;1394;47.044;15.744;2023-04-24T11:26:45;24.10;;;0.70;;
2772;SDS011;1394;47.044;15.744;2023-04-24T11:29:12;24.00;;;0.70;;
2772;SDS011;1394;47.044;15.744;2023-04-24T11:31:40;24.00;;;0.70;;
2772;SDS011;1394;47.044;15.744;2023-04-24T11:34:10;23.90;;;0.80;;
2772;SDS011;1394;47.044;15.744;2023-04-24T11:36:40;24.13;;;0.90;;
2772;SDS011;1394;47.044;15.744;2023-04-24T11:39:09;25.00;;;1.00;;
2772;SDS011;1394;47.044;15.744;2023-04-24T11:41:37;24.00;;;0.80;;
2772;SDS011;1394;47.044;15.744;2023-04-24T11:44:06;24.63;;;1.20;;
2772;SDS011;1394;47.044;15.744;2023-04-24T11:46:33;23.90;;;0.80;;
2772;SDS011;1394;47.044;15.744;2023-04-24T11:49:06;24.10;;;1.00;;
2772;SDS011;1394;47.044;15.744;2023-04-24T11:51:33;24.30;;;0.87;;
2772;SDS011;1394;47.044;15.744;2023-04-24T11:54:09;24.30;;;1.00;;
2772;SDS011;1394;47.044;15.744;2023-04-24T11:56:37;24.20;;;1.00;;
2772;SDS011;1394;47.044;15.744;2023-04-24T11:59:07;23.80;;;0.90;;
2772;SDS011;1394;47.044;15.744;2023-04-24T12:01:42;24.37;;;1.00;;
2772;SDS011;1394;47.044;15.744;2023-04-24T12:04:09;24.53;;;0.83;;
2772;SDS011;1394;47.044;15.744;2023-04-24T12:06:38;24.20;;;1.00;;
2772;SDS011;1394;47.044;15.744;2023-04-24T12:09:06;24.20;;;1.13;;
2772;SDS011;1394;47.044;15.744;2023-04-24T12:11:35;24.87;;;0.80;;
2772;SDS011;1394;47.044;15.744;2023-04-24T12:14:09;24.10;;;0.90;;
2772;SDS011;1394;47.044;15.744;2023-04-24T12:16:36;24.40;;;1.20;;
2772;SDS011;1394;47.044;15.744;2023-04-24T12:19:03;24.00;;;0.90;;
2772;SDS011;1394;47.044;15.744;2023-04-24T12:21:32;23.90;;;0.70;;
2772;SDS011;1394;47.044;15.744;2023-04-24T12:24:00;24.30;;;0.97;;
2772;SDS011;1394;47.044;15.744;2023-04-24T12:26:27;24.40;;;0.90;;
2772;SDS011;1394;47.044;15.744;2023-04-24T12:29:01;24.53;;;0.80;;
2772;SDS011;1394;47.044;15.744;2023-04-24T12:31:28;24.20;;;0.80;;
2772;SDS011;1394;47.044;15.744;2023-04-24T12:33:57;24.13;;;0.97;;
2772;SDS011;1394;47.044;15.744;2023-04-24T12:36:25;24.47;;;0.93;;
2772;SDS011;1394;47.044;15.744;2023-04-24T12:38:54;24.10;;;0.80;;
2772;SDS011;1394;47.044;15.744;2023-04-24T12:41:30;24.37;;;0.87;;
2772;SDS011;1394;47.044;15.744;2023-04-24T12:43:59;24.10;;;0.70;;
2772;SDS011;1394;47.044;15.744;2023-04-24T12:46:28;24.20;;;0.70;;
2772;SDS011;1394;47.044;15.744;2023-04-24T12:48:55;24.33;;;0.67;;
2772;SDS011;1394;47.044;15.744;2023-04-24T12:51:27;24.30;;;0.80;;
2772;SDS011;1394;47.044;15.744;2023-04-24T12:53:57;24.50;;;0.80;;
2772;SDS011;1394;47.044;15.744;2023-04-24T12:56:24;26.73;;;0.60;;
2772;SDS011;1394;47.044;15.744;2023-04-24T12:58:53;24.30;;;0.70;;
2772;SDS011;1394;47.044;15.744;2023-04-24T13:01:22;24.20;;;0.50;;
2772;SDS011;1394;47.044;15.744;2023-04-24T13:03:50;24.47;;;0.70;;
2772;SDS011;1394;47.044;15.744;2023-04-24T13:06:18;24.70;;;0.60;;
2772;SDS011;1394;47.044;15.744;2023-04-24T13:08:47;24.50;;;0.70;;
2772;SDS011;1394;47.044;15.744;2023-04-24T13:11:16;24.47;;;0.60;;
2772;SDS011;1394;47.044;15.744;2023-04-24T13:13:44;24.40;;;0.60;;
2772;SDS011;1394;47.044;15.744;2023-04-24T13:16:13;24.50;;;0.53;;
2772;SDS011;1394;47.044;15.744;2023-04-24T13:18:42;24.50;;;0.60;;
2772;SDS011;1394;47.044;15.744;2023-04-24T13:21:09;24.57;;;0.60;;
2772;SDS011;1394;47.044;15.744;2023-04-24T13:23:37;24.50;;;0.50;;
2772;SDS011;1394;47.044;15.744;2023-04-24T13:26:07;24.70;;;0.57;;
2772;SDS011;1394;47.044;15.744;2023-04-24T13:28:34;24.40;;;0.50;;
2772;SDS011;1394;47.044;15.744;2023-04-24T13:31:04;24.40;;;0.50;;
2772;SDS011;1394;47.044;15.744;2023-04-24T13:33:33;24.50;;;0.50;;
2772;SDS011;1394;47.044;15.744;2023-04-24T13:36:01;25.17;;;0.50;;
2772;SDS011;1394;47.044;15.744;2023-04-24T13:38:28;24.90;;;0.60;;
2772;SDS011;1394;47.044;15.744;2023-04-24T13:40:56;24.50;;;0.50;;
2772;SDS011;1394;47.044;15.744;2023-04-24T13:43:26;24.57;;;0.60;;
2772;SDS011;1394;47.044;15.744;2023-04-24T13:45:54;24.40;;;0.47;;
2772;SDS011;1394;47.044;15.744;2023-04-24T13:48:29;24.50;;;0.50;;
2772;SDS011;1394;47.044;15.744;2023-04-24T13:51:01;25.03;;;0.40;;
2772;SDS011;1394;47.044;15.744;2023-04-24T13:53:28;24.80;;;0.50;;
2772;SDS011;1394;47.044;15.744;2023-04-24T13:55:57;24.83;;;0.50;;
2772;SDS011;1394;47.044;15.744;2023-04-24T13:58:24;24.40;;;0.53;;
2772;SDS011;1394;47.044;15.744;2023-04-24T14:00:54;24.60;;;0.50;;
2772;SDS011;1394;47.044;15.744;2023-04-24T14:03:23;24.40;;;0.50;;
2772;SDS011;1394;47.044;15.744;2023-04-24T14:05:54;24.40;;;0.50;;
2772;SDS011;1394;47.044;15.744;2023-04-24T14:08:25;24.77;;;0.40;;
2772;SDS011;1394;47.044;15.744;2023-04-24T14:10:52;25.10;;;0.50;;
2772;SDS011;1394;47.044;15.744;2023-04-24T14:13:20;24.57;;;0.50;;
2772;SDS011;1394;47.044;15.744;2023-04-24T14:15:48;24.30;;;0.40;;
2772;SDS011;1394;47.044;15.744;2023-04-24T14:18:15;25.50;;;0.50;;
2772;SDS011;1394;47.044;15.744;2023-04-24T14:20:50;24.40;;;0.50;;
2772;SDS011;1394;47.044;15.744;2023-04-24T14:23:19;24.30;;;0.50;;
2772;SDS011;1394;47.044;15.744;2023-04-24T14:25:50;24.33;;;0.70;;
2772;SDS011;1394;47.044;15.744;2023-04-24T14:28:18;24.83;;;0.60;;
2772;SDS011;1394;47.044;15.744;2023-04-24T14:30:46;24.60;;;0.50;;
2772;SDS011;1394;47.044;15.744;2023-04-24T14:33:15;24.20;;;0.50;;
2772;SDS011;1394;47.044;15.744;2023-04-24T14:35:44;24.40;;;0.50;;
2772;SDS011;1394;47.044;15.744;2023-04-24T14:38:12;24.60;;;0.60;;
2772;SDS011;1394;47.044;15.744;2023-04-24T14:40:43;24.97;;;0.50;;
2772;SDS011;1394;47.044;15.744;2023-04-24T14:43:12;24.20;;;0.60;;
2772;SDS011;1394;47.044;15.744;2023-04-24T14:45:40;24.33;;;0.50;;
2772;SDS011;1394;47.044;15.744;2023-04-24T14:48:08;24.43;;;0.40;;
2772;SDS011;1394;47.044;15.744;2023-04-24T14:50:36;24.30;;;0.50;;
2772;SDS011;1394;47.044;15.744;2023-04-24T14:53:05;24.40;;;0.50;;
2772;SDS011;1394;47.044;15.744;2023-04-24T14:55:33;24.40;;;0.50;;
2772;SDS011;1394;47.044;15.744;2023-04-24T14:58:01;25.07;;;0.50;;
2772;SDS011;1394;47.044;15.744;2023-04-24T15:00:29;24.37;;;0.40;;
2772;SDS011;1394;47.044;15.744;2023-04-24T15:02:57;24.40;;;0.50;;